EKBI/BLL METAR and TAF weather

Enter ICAO airport designator
Station Type Date Time Source
EKBI METAR 2019/02/20 06:50 UTC NOAA

EKBI 200650Z AUTO 25006KT 9999 BKN006/// OVC170/// 04/04 Q1014


Station Type Date Time Source
EKBI Decoded METAR 2019/02/20 06:50 UTC NOAA

Billund Lufthavn, Denmark (EKBI) 55-44N 009-10E 79M
Feb 20, 2019 - 01:50 AM EST / 2019.02.20 0650 UTC
Wind: from the WSW (250 degrees) at 7 MPH (6 KT):0
Visibility: greater than 7 mile(s):0
Sky conditions: overcast
Temperature: 39 F (4 C)
Dew Point: 39 F (4 C)
Relative Humidity: 100%
Pressure (altimeter): 29.94 in. Hg (1014 hPa)
ob: EKBI 200650Z AUTO 25006KT 9999 BKN006/// OVC170/// 04/04 Q1014
cycle: 7

Station Type Date Time Source
EKBI TAF 2019/02/20 06:18 UTC NOAA

TAF EKBI 200512Z 2006/2106 26012KT 9999 BKN018
TEMPO 2006/2014 4000 BR BKN008
BECMG 2014/2016 4000 -RADZ BKN008
TEMPO 2016/2106 2000 BR BKN004


Example: see airport list